LUKK/KIV METAR and TAF weather

Enter ICAO airport designator
Station Type Date Time Source
LUKK METAR 2022/08/12 15:30 UTC NOAA

LUKK 121530Z 35010KT 320V030 9999 BKN034CB OVC047 25/17 Q1013 NOSIG


Station Type Date Time Source
LUKK Decoded METAR 2022/08/12 15:30 UTC NOAA

Chisinau International Airport, Moldova (LUKK) 46-55-40N 028-55-51E
Aug 12, 2022 - 11:30 AM EDT / 2022.08.12 1530 UTC
Wind: from the N (350 degrees) at 12 MPH (10 KT) (direction variable):0
Visibility: greater than 7 mile(s):0
Sky conditions: overcast
Weather: Cumulonimbus clouds observed
Temperature: 77 F (25 C)
Dew Point: 62 F (17 C)
Relative Humidity: 61%
Pressure (altimeter): 29.91 in. Hg (1013 hPa)
ob: LUKK 121530Z 35010KT 320V030 9999 BKN034CB OVC047 25/17 Q1013 NOSIG
cycle: 15

Station Type Date Time Source
LUKK TAF 2022/08/12 12:21 UTC NOAA

TAF TAF LUKK 121120Z 1212/1312 34010KT CAVOK
TEMPO 1212/1218 36016G26KT 2000 TSRA SCT035CB
TEMPO 1309/1312 SCT040CB

Example: see airport list